This is the latest recevied weather packets stored in our database for station/object SY3EBK-13. If no packets are shown the sender has not sent any weather packets the latest 10 day(s).
| Time | Temp. | Humidity | Pressure | Rain* | Wind** | Luminosity | Snow |
|---|---|---|---|---|---|---|---|
| 1787863853 | 26.67° C | 42% | 918.1 hPa | - | 0 m/s | - | - |
| 1787862953 | 27.22° C | 42% | 918.1 hPa | - | 0 m/s | - | - |
| 1787862053 | 27.22° C | 42% | 918.1 hPa | - | 0 m/s | - | - |
| 1787861153 | 27.22° C | 42% | 918.2 hPa | - | 0 m/s | - | - |
| 1787859353 | 27.78° C | 41% | 918.2 hPa | - | 0 m/s | - | - |
| 1787858453 | 27.78° C | 41% | 918.1 hPa | - | 0 m/s | - | - |
| 1787857553 | 28.33° C | 41% | 918 hPa | - | 0 m/s | - | - |
| 1787856653 | 28.33° C | 40% | 918 hPa | - | 0 m/s | - | - |
| 1787855753 | 28.33° C | 40% | 917.7 hPa | - | 0 m/s | - | - |
| 1787854853 | 28.89° C | 39% | 917.7 hPa | - | 0 m/s | - | - |
| 1787853953 | 28.89° C | 39% | 917.6 hPa | - | 0 m/s | - | - |
| 1787853053 | 29.44° C | 38% | 917.5 hPa | - | 0 m/s | - | - |
| 1787852153 | 29.44° C | 37% | 917.4 hPa | - | 0 m/s | - | - |
| 1787851253 | 30° C | 36% | 917.1 hPa | - | 0 m/s | - | - |
| 1787850353 | 30.56° C | 36% | 917 hPa | - | 0 m/s | - | - |
| 1787848553 | 31.11° C | 35% | 917 hPa | - | 0 m/s | - | - |
| 1787847653 | 31.11° C | 35% | 916.9 hPa | - | 0 m/s | - | - |
| 1787826953 | 31.67° C | 32% | 917.5 hPa | - | 0 m/s | - | - |
| 1787823353 | 31.67° C | 33% | 917.9 hPa | - | 0 m/s | - | - |
| 1787822453 | 31.11° C | 34% | 918.1 hPa | - | 0 m/s | - | - |
| 1787819753 | 29.44° C | 37% | 918.4 hPa | - | 0 m/s | - | - |
| 1787818853 | 28.89° C | 39% | 918.3 hPa | - | 0 m/s | - | - |
| 1787817953 | 28.89° C | 40% | 918.2 hPa | - | 0 m/s | - | - |
| 1787817053 | 28.33° C | 40% | 918.1 hPa | - | 0 m/s | - | - |
| 1787816153 | 28.33° C | 41% | 918 hPa | - | 0 m/s | - | - |
* Rain since midnight (hover to see other rain measurements)
** Current wind speed in m/s (hover to see current wind gust speed)